createdAt,value
2022-10-06T00:02:36.138Z,15.50
2022-10-06T00:07:39.969Z,17.60
2022-10-06T00:12:46.077Z,16.80
2022-10-06T00:17:49.447Z,16.60
2022-10-06T00:22:52.912Z,17.20
2022-10-06T00:27:56.222Z,16.00
2022-10-06T00:33:02.108Z,19.40
2022-10-06T00:38:05.831Z,17.50
2022-10-06T00:43:38.390Z,17.60
2022-10-06T00:48:42.697Z,18.30
2022-10-06T00:53:45.814Z,16.40
2022-10-06T00:58:50.700Z,19.40
2022-10-06T01:04:05.446Z,21.90
2022-10-06T01:09:08.573Z,14.60
2022-10-06T01:14:13.196Z,20.70
2022-10-06T01:19:40.337Z,18.30
2022-10-06T01:24:46.858Z,18.50
2022-10-06T01:29:54.334Z,16.00
2022-10-06T01:34:57.466Z,15.90
2022-10-06T01:40:00.680Z,19.00
2022-10-06T01:45:05.444Z,19.40
2022-10-06T01:50:08.692Z,16.80
2022-10-06T01:55:12.326Z,19.70
2022-10-06T02:00:15.794Z,18.70
2022-10-06T02:05:18.944Z,19.70
2022-10-06T02:10:22.281Z,17.60
2022-10-06T02:15:27.539Z,19.30
2022-10-06T02:20:30.777Z,17.90
2022-10-06T02:25:33.907Z,14.00
2022-10-06T02:30:37.360Z,19.70
2022-10-06T02:35:43.239Z,18.00
2022-10-06T02:40:46.300Z,19.00
2022-10-06T02:46:09.534Z,18.80
2022-10-06T02:51:19.002Z,17.60
2022-10-06T02:56:24.560Z,20.10
2022-10-06T03:01:29.508Z,15.80
2022-10-06T03:06:32.714Z,17.70
2022-10-06T03:11:43.069Z,19.10
2022-10-06T03:16:47.265Z,21.40
2022-10-06T03:21:50.750Z,23.80
2022-10-06T03:26:53.898Z,16.90
2022-10-06T03:31:58.929Z,20.40
2022-10-06T03:37:02.358Z,18.50
2022-10-06T03:42:05.483Z,16.60
2022-10-06T03:47:11.128Z,18.70
2022-10-06T03:52:16.519Z,22.40
2022-10-06T03:57:19.963Z,20.30
2022-10-06T04:02:23.989Z,19.10
2022-10-06T04:07:27.204Z,21.10
2022-10-06T04:12:30.593Z,19.00
2022-10-06T04:17:33.846Z,17.80
2022-10-06T04:22:37.355Z,19.00
2022-10-06T04:27:40.505Z,18.60
2022-10-06T04:32:46.024Z,19.70
2022-10-06T04:37:50.552Z,17.10
2022-10-06T04:42:53.848Z,21.30
2022-10-06T04:48:00.345Z,18.20
2022-10-06T04:53:03.464Z,18.90
2022-10-06T04:58:06.671Z,19.60
2022-10-06T05:03:09.915Z,21.30
2022-10-06T05:08:13.546Z,23.40
2022-10-06T05:13:16.732Z,17.40
2022-10-06T05:18:19.877Z,19.10
2022-10-06T05:23:26.689Z,21.70
2022-10-06T05:28:31.791Z,22.50
2022-10-06T05:33:37.104Z,19.60
2022-10-06T05:38:40.713Z,19.20
2022-10-06T05:43:44.947Z,16.00
2022-10-06T05:48:55.763Z,14.20
2022-10-06T05:54:00.152Z,24.50
2022-10-06T05:59:05.167Z,24.20
2022-10-06T06:04:13.851Z,21.80
2022-10-06T06:09:19.895Z,18.60
2022-10-06T06:14:44.800Z,17.50
2022-10-06T06:19:48.032Z,14.90
2022-10-06T06:24:51.372Z,22.30
2022-10-06T06:29:55.009Z,18.70
2022-10-06T06:35:00.436Z,20.70
2022-10-06T06:40:05.885Z,22.30
2022-10-06T06:45:10.189Z,21.60
2022-10-06T06:50:14.335Z,19.70
2022-10-06T06:55:17.828Z,15.10
2022-10-06T07:00:23.585Z,17.10
2022-10-06T07:05:29.827Z,17.30
2022-10-06T07:10:35.669Z,14.30
2022-10-06T07:15:57.333Z,10.70
2022-10-06T07:21:19.130Z,8.30
2022-10-06T07:26:22.387Z,9.00
2022-10-06T07:31:25.756Z,9.90
2022-10-06T07:36:29.322Z,8.20
2022-10-06T07:41:33.087Z,8.30
2022-10-06T07:46:36.257Z,8.10
2022-10-06T07:51:39.505Z,9.20
2022-10-06T07:56:42.588Z,7.00
2022-10-06T08:01:46.397Z,8.50
2022-10-06T08:06:49.702Z,8.40
2022-10-06T08:11:53.444Z,7.50
2022-10-06T08:16:57.503Z,9.20
2022-10-06T08:22:04.608Z,6.70
2022-10-06T08:27:10.185Z,7.30
2022-10-06T08:32:13.610Z,9.80
2022-10-06T08:37:21.232Z,8.20
2022-10-06T08:42:50.535Z,7.10
2022-10-06T08:48:02.967Z,7.90
2022-10-06T08:53:24.810Z,8.00
2022-10-06T08:58:37.117Z,6.90
2022-10-06T09:03:40.486Z,6.10
2022-10-06T09:09:03.782Z,6.60
2022-10-06T09:14:17.547Z,5.00
2022-10-06T09:19:24.703Z,4.20
2022-10-06T09:24:47.202Z,6.20
2022-10-06T09:29:54.878Z,5.20
2022-10-06T09:35:04.949Z,5.10
2022-10-06T09:40:34.761Z,6.40
2022-10-06T09:45:38.242Z,6.60
2022-10-06T09:50:41.335Z,8.70
2022-10-06T09:55:48.022Z,4.70
2022-10-06T10:01:07.291Z,4.60
2022-10-06T10:06:22.461Z,4.40
2022-10-06T10:11:47.102Z,5.00
2022-10-06T10:16:53.214Z,5.80
2022-10-06T10:21:56.753Z,5.40
2022-10-06T10:27:22.548Z,5.70
2022-10-06T10:32:35.841Z,5.00
2022-10-06T10:37:55.460Z,3.70
2022-10-06T10:43:10.898Z,4.20
2022-10-06T10:48:30.932Z,5.20
2022-10-06T10:53:50.439Z,5.70
2022-10-06T10:58:59.955Z,4.30
2022-10-06T11:04:03.822Z,3.80
2022-10-06T11:09:15.810Z,3.40
2022-10-06T11:14:34.257Z,3.30
2022-10-06T11:19:37.439Z,4.50
2022-10-06T11:24:48.649Z,3.30
2022-10-06T11:30:05.716Z,2.50
2022-10-06T11:35:21.388Z,3.00
2022-10-06T11:40:52.910Z,3.60
2022-10-06T11:46:10.201Z,4.20
2022-10-06T11:51:26.389Z,4.40
2022-10-06T11:56:39.457Z,2.10
2022-10-06T12:01:47.906Z,3.30
2022-10-06T12:06:51.105Z,3.50
2022-10-06T12:12:00.878Z,3.90
2022-10-06T12:17:32.812Z,3.70
2022-10-06T12:23:03.932Z,3.00
2022-10-06T12:28:19.786Z,2.80
2022-10-06T12:33:39.869Z,4.10
2022-10-06T12:39:23.872Z,3.10
2022-10-06T12:44:50.183Z,7.40
2022-10-06T12:50:03.128Z,3.10
2022-10-06T12:55:38.854Z,4.80
2022-10-06T13:00:43.825Z,4.00
2022-10-06T13:05:53.544Z,8.50
2022-10-06T13:11:23.822Z,4.00
2022-10-06T13:16:31.750Z,2.80
2022-10-06T13:21:35.632Z,4.00
2022-10-06T13:26:40.289Z,5.30
2022-10-06T13:31:51.889Z,9.40
2022-10-06T13:36:58.571Z,2.30
2022-10-06T13:42:08.938Z,3.90
2022-10-06T13:47:20.798Z,3.00
2022-10-06T13:52:30.806Z,3.50
2022-10-06T13:57:35.241Z,3.40
2022-10-06T14:02:38.605Z,3.50
2022-10-06T14:07:45.006Z,3.40
2022-10-06T14:12:49.570Z,2.10
2022-10-06T14:18:02.022Z,4.20
2022-10-06T14:23:44.318Z,3.20
2022-10-06T14:28:51.840Z,4.50
2022-10-06T14:33:57.394Z,4.90
2022-10-06T14:39:01.228Z,5.60
2022-10-06T14:44:09.094Z,6.20
2022-10-06T14:49:16.186Z,4.70
2022-10-06T14:54:20.548Z,5.40
2022-10-06T14:59:24.742Z,6.30
2022-10-06T15:04:28.465Z,6.50
2022-10-06T15:09:32.801Z,5.80
2022-10-06T15:14:40.192Z,5.90
2022-10-06T15:19:44.190Z,6.70
2022-10-06T15:24:50.938Z,8.40
2022-10-06T15:29:54.502Z,6.60
2022-10-06T15:34:58.147Z,7.20
2022-10-06T15:40:02.060Z,9.00
2022-10-06T15:45:07.595Z,6.10
2022-10-06T15:50:15.134Z,7.40
2022-10-06T15:55:22.721Z,10.00
2022-10-06T16:00:29.029Z,8.30
2022-10-06T16:05:48.883Z,6.00
2022-10-06T16:10:52.225Z,7.00
2022-10-06T16:15:56.857Z,10.80
2022-10-06T16:21:00.405Z,9.30
2022-10-06T16:26:04.246Z,9.10
2022-10-06T16:31:07.888Z,7.40
2022-10-06T16:36:13.152Z,5.70
2022-10-06T16:41:16.365Z,9.70
2022-10-06T16:46:25.256Z,9.60
2022-10-06T16:51:34.307Z,11.00
2022-10-06T16:56:49.155Z,12.20
2022-10-06T17:01:52.377Z,18.20
2022-10-06T17:06:57.602Z,13.00
2022-10-06T17:12:04.111Z,12.50
2022-10-06T17:17:07.745Z,15.20
2022-10-06T17:22:15.256Z,14.60
2022-10-06T17:27:18.976Z,16.20
2022-10-06T17:32:22.573Z,17.90
2022-10-06T17:37:25.739Z,13.60
2022-10-06T17:42:31.598Z,11.30
2022-10-06T17:47:36.213Z,11.00
2022-10-06T17:52:40.480Z,10.60
2022-10-06T17:57:44.529Z,13.40
2022-10-06T18:02:48.774Z,16.70
2022-10-06T18:07:56.171Z,16.00
2022-10-06T18:13:00.676Z,18.40
2022-10-06T18:18:05.286Z,16.00
2022-10-06T18:23:10.619Z,17.50
2022-10-06T18:28:14.298Z,17.40
2022-10-06T18:36:11.048Z,40.60
2022-10-06T18:38:45.204Z,38.60
2022-10-06T18:43:50.540Z,35.70
2022-10-06T18:49:00.787Z,36.30
2022-10-06T18:54:09.311Z,22.90
2022-10-06T18:59:14.137Z,23.30
2022-10-06T19:04:19.551Z,20.50
2022-10-06T19:09:29.822Z,29.80
2022-10-06T19:14:37.320Z,31.10
2022-10-06T19:19:46.489Z,19.70
2022-10-06T19:24:49.766Z,13.00
2022-10-06T19:29:57.058Z,14.00
2022-10-06T19:35:01.267Z,13.00
2022-10-06T19:40:04.739Z,12.00
2022-10-06T19:45:10.112Z,12.50
2022-10-06T19:50:13.752Z,11.90
2022-10-06T19:55:17.090Z,14.10
2022-10-06T20:00:20.374Z,14.40
2022-10-06T20:05:23.595Z,11.00
2022-10-06T20:10:26.793Z,13.80
2022-10-06T20:15:29.970Z,17.40
2022-10-06T20:20:33.640Z,14.20
2022-10-06T20:25:36.912Z,13.50
2022-10-06T20:30:42.633Z,21.90
2022-10-06T20:35:46.244Z,28.80
2022-10-06T20:40:49.441Z,24.20
2022-10-06T20:45:54.423Z,21.80
2022-10-06T20:50:58.016Z,16.10
2022-10-06T20:56:02.240Z,11.50
2022-10-06T21:01:11.088Z,7.30
2022-10-06T21:06:18.873Z,11.30
2022-10-06T21:11:25.142Z,12.00
2022-10-06T21:16:32.481Z,13.50
2022-10-06T21:21:37.769Z,10.80
2022-10-06T21:26:42.781Z,11.70
2022-10-06T21:31:47.280Z,14.50
2022-10-06T21:36:52.396Z,9.10
2022-10-06T21:41:57.690Z,11.60
2022-10-06T21:47:02.937Z,9.90
2022-10-06T21:52:06.287Z,10.30
2022-10-06T21:57:09.556Z,9.10
2022-10-06T22:02:12.803Z,9.20
2022-10-06T22:07:16.272Z,11.60
2022-10-06T22:12:19.571Z,11.10
2022-10-06T22:17:22.832Z,11.50
2022-10-06T22:22:26.660Z,9.30
2022-10-06T22:27:29.952Z,11.10
2022-10-06T22:32:33.609Z,12.80
2022-10-06T22:37:37.113Z,11.10
2022-10-06T22:42:40.395Z,10.30
2022-10-06T22:47:43.790Z,14.00
2022-10-06T22:52:47.354Z,11.30
2022-10-06T22:57:50.687Z,12.10
2022-10-06T23:02:55.328Z,12.40
2022-10-06T23:07:59.628Z,13.00
2022-10-06T23:13:03.933Z,15.90
2022-10-06T23:18:08.649Z,11.20
2022-10-06T23:23:15.769Z,16.70
2022-10-06T23:28:18.999Z,14.40
2022-10-06T23:33:22.596Z,11.00
2022-10-06T23:38:26.361Z,9.90
2022-10-06T23:43:29.807Z,10.10
2022-10-06T23:48:33.105Z,12.30
2022-10-06T23:53:37.155Z,13.30
2022-10-06T23:58:42.902Z,9.00
